sensor_id;sensor_type;location;lat;lon;timestamp;temperature;humidity
16479;DHT22;8350;52.316;10.530;2023-02-04T00:00:22;4.70;99.90
16479;DHT22;8350;52.316;10.530;2023-02-04T00:02:50;4.50;99.90
16479;DHT22;8350;52.316;10.530;2023-02-04T00:05:19;4.40;99.90
16479;DHT22;8350;52.316;10.530;2023-02-04T00:07:46;4.40;99.90
16479;DHT22;8350;52.316;10.530;2023-02-04T00:10:13;4.30;99.90
16479;DHT22;8350;52.316;10.530;2023-02-04T00:12:40;4.40;99.90
16479;DHT22;8350;52.316;10.530;2023-02-04T00:15:13;4.40;99.90
16479;DHT22;8350;52.316;10.530;2023-02-04T00:17:40;4.40;99.90
16479;DHT22;8350;52.316;10.530;2023-02-04T00:20:08;4.50;99.90
16479;DHT22;8350;52.316;10.530;2023-02-04T00:22:36;4.50;99.90
16479;DHT22;8350;52.316;10.530;2023-02-04T00:25:04;4.40;99.90
16479;DHT22;8350;52.316;10.530;2023-02-04T00:27:31;4.40;93.00
16479;DHT22;8350;52.316;10.530;2023-02-04T00:29:58;4.40;95.60
16479;DHT22;8350;52.316;10.530;2023-02-04T00:32:25;4.30;86.60
16479;DHT22;8350;52.316;10.530;2023-02-04T00:34:52;4.30;96.60
16479;DHT22;8350;52.316;10.530;2023-02-04T00:37:19;4.30;77.40
16479;DHT22;8350;52.316;10.530;2023-02-04T00:39:48;4.30;79.90
16479;DHT22;8350;52.316;10.530;2023-02-04T00:42:15;4.30;93.80
16479;DHT22;8350;52.316;10.530;2023-02-04T00:44:42;4.20;99.90
16479;DHT22;8350;52.316;10.530;2023-02-04T00:47:09;4.10;75.30
16479;DHT22;8350;52.316;10.530;2023-02-04T00:49:39;4.10;15.60
16479;DHT22;8350;52.316;10.530;2023-02-04T00:52:10;4.10;4.00
16479;DHT22;8350;52.316;10.530;2023-02-04T00:54:37;4.00;1.00
16479;DHT22;8350;52.316;10.530;2023-02-04T00:57:05;4.00;7.50
16479;DHT22;8350;52.316;10.530;2023-02-04T00:59:32;4.00;9.10
16479;DHT22;8350;52.316;10.530;2023-02-04T01:01:59;4.00;26.10
16479;DHT22;8350;52.316;10.530;2023-02-04T01:04:26;4.00;27.20
16479;DHT22;8350;52.316;10.530;2023-02-04T01:06:54;3.90;30.50
16479;DHT22;8350;52.316;10.530;2023-02-04T01:09:21;3.90;53.90
16479;DHT22;8350;52.316;10.530;2023-02-04T01:11:48;3.90;28.60
16479;DHT22;8350;52.316;10.530;2023-02-04T01:14:16;3.80;33.50
16479;DHT22;8350;52.316;10.530;2023-02-04T01:16:43;3.80;34.50
16479;DHT22;8350;52.316;10.530;2023-02-04T01:19:11;3.70;44.10
16479;DHT22;8350;52.316;10.530;2023-02-04T01:21:38;3.70;18.40
16479;DHT22;8350;52.316;10.530;2023-02-04T01:24:05;3.70;27.10
16479;DHT22;8350;52.316;10.530;2023-02-04T01:26:32;3.70;28.80
16479;DHT22;8350;52.316;10.530;2023-02-04T01:28:59;3.60;22.50
16479;DHT22;8350;52.316;10.530;2023-02-04T01:31:29;3.60;12.90
16479;DHT22;8350;52.316;10.530;2023-02-04T01:33:57;3.50;19.70
16479;DHT22;8350;52.316;10.530;2023-02-04T01:36:24;3.40;23.70
16479;DHT22;8350;52.316;10.530;2023-02-04T01:38:54;3.40;25.10
16479;DHT22;8350;52.316;10.530;2023-02-04T01:41:22;3.30;21.90
16479;DHT22;8350;52.316;10.530;2023-02-04T01:43:51;3.40;21.10
16479;DHT22;8350;52.316;10.530;2023-02-04T01:46:18;3.30;18.80
16479;DHT22;8350;52.316;10.530;2023-02-04T01:48:47;3.30;18.30
16479;DHT22;8350;52.316;10.530;2023-02-04T01:51:24;3.30;20.00
16479;DHT22;8350;52.316;10.530;2023-02-04T01:53:53;3.20;23.00
16479;DHT22;8350;52.316;10.530;2023-02-04T01:56:22;3.20;19.70
16479;DHT22;8350;52.316;10.530;2023-02-04T01:58:51;3.20;26.90
16479;DHT22;8350;52.316;10.530;2023-02-04T02:01:34;3.20;22.50
16479;DHT22;8350;52.316;10.530;2023-02-04T02:04:03;3.20;27.90
16479;DHT22;8350;52.316;10.530;2023-02-04T02:06:31;3.10;31.40
16479;DHT22;8350;52.316;10.530;2023-02-04T02:08:58;3.00;44.10
16479;DHT22;8350;52.316;10.530;2023-02-04T02:11:26;3.00;45.50
16479;DHT22;8350;52.316;10.530;2023-02-04T02:13:53;3.00;45.30
16479;DHT22;8350;52.316;10.530;2023-02-04T02:16:20;3.00;52.90
16479;DHT22;8350;52.316;10.530;2023-02-04T02:18:48;2.90;58.90
16479;DHT22;8350;52.316;10.530;2023-02-04T02:21:23;2.80;66.20
16479;DHT22;8350;52.316;10.530;2023-02-04T02:23:57;2.80;76.40
16479;DHT22;8350;52.316;10.530;2023-02-04T02:26:26;2.70;81.20
16479;DHT22;8350;52.316;10.530;2023-02-04T02:28:53;2.70;90.80
16479;DHT22;8350;52.316;10.530;2023-02-04T02:31:21;2.60;90.80
16479;DHT22;8350;52.316;10.530;2023-02-04T02:33:49;2.60;92.00
16479;DHT22;8350;52.316;10.530;2023-02-04T02:36:16;2.60;94.90
16479;DHT22;8350;52.316;10.530;2023-02-04T02:38:43;2.50;96.90
16479;DHT22;8350;52.316;10.530;2023-02-04T02:41:11;2.50;99.90
16479;DHT22;8350;52.316;10.530;2023-02-04T02:43:38;2.40;99.90
16479;DHT22;8350;52.316;10.530;2023-02-04T02:46:06;2.30;99.90
16479;DHT22;8350;52.316;10.530;2023-02-04T02:48:33;2.30;99.90
16479;DHT22;8350;52.316;10.530;2023-02-04T02:51:00;2.20;99.90
16479;DHT22;8350;52.316;10.530;2023-02-04T02:53:27;2.20;99.90
16479;DHT22;8350;52.316;10.530;2023-02-04T02:55:54;2.20;99.90
16479;DHT22;8350;52.316;10.530;2023-02-04T02:58:27;2.20;99.90
16479;DHT22;8350;52.316;10.530;2023-02-04T03:00:55;2.10;99.90
16479;DHT22;8350;52.316;10.530;2023-02-04T03:03:24;2.00;99.90
16479;DHT22;8350;52.316;10.530;2023-02-04T03:05:56;2.00;99.90
16479;DHT22;8350;52.316;10.530;2023-02-04T03:08:26;1.90;99.90
16479;DHT22;8350;52.316;10.530;2023-02-04T03:10:53;1.90;99.90
16479;DHT22;8350;52.316;10.530;2023-02-04T03:13:20;1.80;99.90
16479;DHT22;8350;52.316;10.530;2023-02-04T03:15:52;1.80;99.90
16479;DHT22;8350;52.316;10.530;2023-02-04T03:18:19;1.70;99.90
16479;DHT22;8350;52.316;10.530;2023-02-04T03:20:47;1.70;99.90
16479;DHT22;8350;52.316;10.530;2023-02-04T03:23:21;1.70;99.90
16479;DHT22;8350;52.316;10.530;2023-02-04T03:25:48;1.70;99.90
16479;DHT22;8350;52.316;10.530;2023-02-04T03:28:15;1.60;99.90
16479;DHT22;8350;52.316;10.530;2023-02-04T03:30:44;1.60;99.90
16479;DHT22;8350;52.316;10.530;2023-02-04T03:33:22;1.60;99.90
16479;DHT22;8350;52.316;10.530;2023-02-04T03:35:49;1.50;99.90
16479;DHT22;8350;52.316;10.530;2023-02-04T03:38:16;1.50;99.90
16479;DHT22;8350;52.316;10.530;2023-02-04T03:40:43;1.50;99.90
16479;DHT22;8350;52.316;10.530;2023-02-04T03:43:11;1.50;99.90
16479;DHT22;8350;52.316;10.530;2023-02-04T03:45:37;1.50;99.90
16479;DHT22;8350;52.316;10.530;2023-02-04T03:48:04;1.50;99.90
16479;DHT22;8350;52.316;10.530;2023-02-04T03:50:33;1.50;99.90
16479;DHT22;8350;52.316;10.530;2023-02-04T03:53:00;1.40;99.90
16479;DHT22;8350;52.316;10.530;2023-02-04T03:55:27;1.40;99.90
16479;DHT22;8350;52.316;10.530;2023-02-04T03:57:54;1.40;99.90
16479;DHT22;8350;52.316;10.530;2023-02-04T04:00:21;1.40;99.90
16479;DHT22;8350;52.316;10.530;2023-02-04T04:02:48;1.40;99.90
16479;DHT22;8350;52.316;10.530;2023-02-04T04:05:17;1.30;99.90
16479;DHT22;8350;52.316;10.530;2023-02-04T04:07:45;1.30;99.90
16479;DHT22;8350;52.316;10.530;2023-02-04T04:10:12;1.30;99.90
16479;DHT22;8350;52.316;10.530;2023-02-04T04:12:39;1.20;99.90
16479;DHT22;8350;52.316;10.530;2023-02-04T04:15:07;1.20;99.90
16479;DHT22;8350;52.316;10.530;2023-02-04T04:17:37;1.20;99.90
16479;DHT22;8350;52.316;10.530;2023-02-04T04:20:04;1.20;99.90
16479;DHT22;8350;52.316;10.530;2023-02-04T04:22:32;1.20;99.90
16479;DHT22;8350;52.316;10.530;2023-02-04T04:25:00;1.20;99.90
16479;DHT22;8350;52.316;10.530;2023-02-04T04:27:28;1.20;99.90
16479;DHT22;8350;52.316;10.530;2023-02-04T04:29:55;1.20;99.90
16479;DHT22;8350;52.316;10.530;2023-02-04T04:32:22;1.20;99.90
16479;DHT22;8350;52.316;10.530;2023-02-04T04:34:49;1.10;99.90
16479;DHT22;8350;52.316;10.530;2023-02-04T04:37:16;1.10;99.90
16479;DHT22;8350;52.316;10.530;2023-02-04T04:39:43;1.00;99.90
16479;DHT22;8350;52.316;10.530;2023-02-04T04:42:11;0.90;99.90
16479;DHT22;8350;52.316;10.530;2023-02-04T04:44:39;0.80;99.90
16479;DHT22;8350;52.316;10.530;2023-02-04T04:47:05;0.80;99.90
16479;DHT22;8350;52.316;10.530;2023-02-04T04:49:32;0.70;99.90
16479;DHT22;8350;52.316;10.530;2023-02-04T04:51:59;0.70;99.90
16479;DHT22;8350;52.316;10.530;2023-02-04T04:54:26;0.70;99.90
16479;DHT22;8350;52.316;10.530;2023-02-04T04:56:53;0.60;99.90
16479;DHT22;8350;52.316;10.530;2023-02-04T04:59:22;0.50;99.90
16479;DHT22;8350;52.316;10.530;2023-02-04T05:01:52;0.50;99.90
16479;DHT22;8350;52.316;10.530;2023-02-04T05:04:19;0.40;99.90
16479;DHT22;8350;52.316;10.530;2023-02-04T05:06:46;0.40;99.90
16479;DHT22;8350;52.316;10.530;2023-02-04T05:09:13;0.40;99.90
16479;DHT22;8350;52.316;10.530;2023-02-04T05:11:42;0.20;99.90
16479;DHT22;8350;52.316;10.530;2023-02-04T05:14:09;0.10;99.90
16479;DHT22;8350;52.316;10.530;2023-02-04T05:16:37;-0.10;99.90
16479;DHT22;8350;52.316;10.530;2023-02-04T05:19:04;-0.10;99.90
16479;DHT22;8350;52.316;10.530;2023-02-04T05:21:31;0.10;99.90
16479;DHT22;8350;52.316;10.530;2023-02-04T05:23:58;0.20;99.90
16479;DHT22;8350;52.316;10.530;2023-02-04T05:26:25;0.20;99.90
16479;DHT22;8350;52.316;10.530;2023-02-04T05:28:52;0.20;99.90
16479;DHT22;8350;52.316;10.530;2023-02-04T05:31:19;0.20;99.90
16479;DHT22;8350;52.316;10.530;2023-02-04T05:33:47;0.30;99.90
16479;DHT22;8350;52.316;10.530;2023-02-04T05:36:15;0.30;99.90
16479;DHT22;8350;52.316;10.530;2023-02-04T05:38:42;0.30;99.90
16479;DHT22;8350;52.316;10.530;2023-02-04T05:41:09;0.50;99.90
16479;DHT22;8350;52.316;10.530;2023-02-04T05:43:36;0.40;99.90
16479;DHT22;8350;52.316;10.530;2023-02-04T05:46:03;0.50;99.90
16479;DHT22;8350;52.316;10.530;2023-02-04T05:48:30;0.60;99.90
16479;DHT22;8350;52.316;10.530;2023-02-04T05:50:59;0.60;99.90
16479;DHT22;8350;52.316;10.530;2023-02-04T05:53:26;0.60;99.90
16479;DHT22;8350;52.316;10.530;2023-02-04T05:55:53;0.70;99.90
16479;DHT22;8350;52.316;10.530;2023-02-04T05:58:20;0.70;99.90
16479;DHT22;8350;52.316;10.530;2023-02-04T06:00:47;0.80;99.90
16479;DHT22;8350;52.316;10.530;2023-02-04T06:03:14;0.80;99.90
16479;DHT22;8350;52.316;10.530;2023-02-04T06:05:43;0.80;99.90
16479;DHT22;8350;52.316;10.530;2023-02-04T06:08:12;0.80;99.90
16479;DHT22;8350;52.316;10.530;2023-02-04T06:10:43;0.90;99.90
16479;DHT22;8350;52.316;10.530;2023-02-04T06:13:10;0.90;99.90
16479;DHT22;8350;52.316;10.530;2023-02-04T06:15:37;0.80;99.90
16479;DHT22;8350;52.316;10.530;2023-02-04T06:18:07;0.80;99.90
16479;DHT22;8350;52.316;10.530;2023-02-04T06:20:33;0.80;99.90
16479;DHT22;8350;52.316;10.530;2023-02-04T06:23:00;0.90;99.90
16479;DHT22;8350;52.316;10.530;2023-02-04T06:25:29;0.90;99.90
16479;DHT22;8350;52.316;10.530;2023-02-04T06:27:56;1.00;99.90
16479;DHT22;8350;52.316;10.530;2023-02-04T06:30:23;1.00;99.90
16479;DHT22;8350;52.316;10.530;2023-02-04T06:32:50;1.00;99.90
16479;DHT22;8350;52.316;10.530;2023-02-04T06:35:17;1.00;99.90
16479;DHT22;8350;52.316;10.530;2023-02-04T06:37:44;1.10;99.90
16479;DHT22;8350;52.316;10.530;2023-02-04T06:40:13;1.10;99.90
16479;DHT22;8350;52.316;10.530;2023-02-04T06:42:42;1.10;99.90
16479;DHT22;8350;52.316;10.530;2023-02-04T06:45:09;1.10;99.90
16479;DHT22;8350;52.316;10.530;2023-02-04T06:47:36;1.10;99.90
16479;DHT22;8350;52.316;10.530;2023-02-04T06:50:03;1.00;99.90
16479;DHT22;8350;52.316;10.530;2023-02-04T06:52:30;1.00;99.90
16479;DHT22;8350;52.316;10.530;2023-02-04T06:54:57;1.10;99.90
16479;DHT22;8350;52.316;10.530;2023-02-04T06:57:24;1.10;99.90
16479;DHT22;8350;52.316;10.530;2023-02-04T06:59:54;1.10;99.90
16479;DHT22;8350;52.316;10.530;2023-02-04T07:02:21;1.10;99.90
16479;DHT22;8350;52.316;10.530;2023-02-04T07:04:48;1.10;99.90
16479;DHT22;8350;52.316;10.530;2023-02-04T07:07:15;1.00;99.90
16479;DHT22;8350;52.316;10.530;2023-02-04T07:09:41;1.00;99.90
16479;DHT22;8350;52.316;10.530;2023-02-04T07:12:08;1.00;99.90
16479;DHT22;8350;52.316;10.530;2023-02-04T07:14:38;0.90;99.90
16479;DHT22;8350;52.316;10.530;2023-02-04T07:17:06;0.90;99.90
16479;DHT22;8350;52.316;10.530;2023-02-04T07:19:33;0.90;99.90
16479;DHT22;8350;52.316;10.530;2023-02-04T07:22:00;0.90;99.90
16479;DHT22;8350;52.316;10.530;2023-02-04T07:24:27;0.80;99.90
16479;DHT22;8350;52.316;10.530;2023-02-04T07:26:56;0.70;99.90
16479;DHT22;8350;52.316;10.530;2023-02-04T07:29:24;0.60;99.90
16479;DHT22;8350;52.316;10.530;2023-02-04T07:31:51;0.60;99.90
16479;DHT22;8350;52.316;10.530;2023-02-04T07:34:20;0.60;99.90
16479;DHT22;8350;52.316;10.530;2023-02-04T07:36:47;0.70;99.90
16479;DHT22;8350;52.316;10.530;2023-02-04T07:39:14;0.80;99.90
16479;DHT22;8350;52.316;10.530;2023-02-04T07:41:41;0.80;99.90
16479;DHT22;8350;52.316;10.530;2023-02-04T07:44:08;0.80;99.90
16479;DHT22;8350;52.316;10.530;2023-02-04T07:46:35;0.80;99.90
16479;DHT22;8350;52.316;10.530;2023-02-04T07:49:02;0.90;99.90
16479;DHT22;8350;52.316;10.530;2023-02-04T07:51:31;0.90;99.90
16479;DHT22;8350;52.316;10.530;2023-02-04T07:53:58;0.90;99.90
16479;DHT22;8350;52.316;10.530;2023-02-04T07:56:25;0.90;99.90
16479;DHT22;8350;52.316;10.530;2023-02-04T07:58:52;0.90;99.90
16479;DHT22;8350;52.316;10.530;2023-02-04T08:01:19;0.90;99.90
16479;DHT22;8350;52.316;10.530;2023-02-04T08:03:46;1.00;99.90
16479;DHT22;8350;52.316;10.530;2023-02-04T08:06:13;1.10;99.90
16479;DHT22;8350;52.316;10.530;2023-02-04T08:08:41;1.10;99.90
16479;DHT22;8350;52.316;10.530;2023-02-04T08:11:17;1.10;99.90
16479;DHT22;8350;52.316;10.530;2023-02-04T08:13:44;1.10;99.90
16479;DHT22;8350;52.316;10.530;2023-02-04T08:16:14;1.20;99.90
16479;DHT22;8350;52.316;10.530;2023-02-04T08:18:41;1.30;99.90
16479;DHT22;8350;52.316;10.530;2023-02-04T08:21:08;1.30;99.90
16479;DHT22;8350;52.316;10.530;2023-02-04T08:23:35;1.30;99.90
16479;DHT22;8350;52.316;10.530;2023-02-04T08:26:07;1.30;99.90
16479;DHT22;8350;52.316;10.530;2023-02-04T08:28:34;1.40;99.90
16479;DHT22;8350;52.316;10.530;2023-02-04T08:31:02;1.50;99.90
16479;DHT22;8350;52.316;10.530;2023-02-04T08:33:29;1.50;99.90
16479;DHT22;8350;52.316;10.530;2023-02-04T08:35:56;1.50;99.90
16479;DHT22;8350;52.316;10.530;2023-02-04T08:38:23;1.70;99.90
16479;DHT22;8350;52.316;10.530;2023-02-04T08:40:57;1.80;99.90
16479;DHT22;8350;52.316;10.530;2023-02-04T08:43:32;1.80;99.90
16479;DHT22;8350;52.316;10.530;2023-02-04T08:45:59;1.90;99.90
16479;DHT22;8350;52.316;10.530;2023-02-04T08:48:26;2.00;99.90
16479;DHT22;8350;52.316;10.530;2023-02-04T08:50:53;2.00;99.90
16479;DHT22;8350;52.316;10.530;2023-02-04T08:53:24;2.10;99.90
16479;DHT22;8350;52.316;10.530;2023-02-04T08:55:50;2.10;99.90
16479;DHT22;8350;52.316;10.530;2023-02-04T08:58:17;2.20;99.90
16479;DHT22;8350;52.316;10.530;2023-02-04T09:00:46;2.20;99.90
16479;DHT22;8350;52.316;10.530;2023-02-04T09:03:13;2.40;99.90
16479;DHT22;8350;52.316;10.530;2023-02-04T09:05:41;2.50;99.90
16479;DHT22;8350;52.316;10.530;2023-02-04T09:08:08;2.50;99.90
16479;DHT22;8350;52.316;10.530;2023-02-04T09:10:34;2.60;99.90
16479;DHT22;8350;52.316;10.530;2023-02-04T09:13:01;2.60;99.90
16479;DHT22;8350;52.316;10.530;2023-02-04T09:15:28;2.70;99.90
16479;DHT22;8350;52.316;10.530;2023-02-04T09:17:57;2.80;99.90
16479;DHT22;8350;52.316;10.530;2023-02-04T09:20:29;2.80;99.90
16479;DHT22;8350;52.316;10.530;2023-02-04T09:22:56;2.90;99.90
16479;DHT22;8350;52.316;10.530;2023-02-04T09:25:23;2.90;99.90
16479;DHT22;8350;52.316;10.530;2023-02-04T09:27:50;3.00;99.90
16479;DHT22;8350;52.316;10.530;2023-02-04T09:30:17;3.00;99.90
16479;DHT22;8350;52.316;10.530;2023-02-04T09:32:44;3.10;99.90
16479;DHT22;8350;52.316;10.530;2023-02-04T09:35:13;3.10;99.90
16479;DHT22;8350;52.316;10.530;2023-02-04T09:37:40;3.20;99.90
16479;DHT22;8350;52.316;10.530;2023-02-04T09:40:09;3.20;91.50
16479;DHT22;8350;52.316;10.530;2023-02-04T09:42:39;3.30;92.80
16479;DHT22;8350;52.316;10.530;2023-02-04T09:45:10;3.30;63.20
16479;DHT22;8350;52.316;10.530;2023-02-04T09:47:41;3.30;41.60
16479;DHT22;8350;52.316;10.530;2023-02-04T09:50:13;3.30;40.20
16479;DHT22;8350;52.316;10.530;2023-02-04T09:52:45;3.40;48.50
16479;DHT22;8350;52.316;10.530;2023-02-04T09:55:13;3.40;20.90
16479;DHT22;8350;52.316;10.530;2023-02-04T09:57:41;3.50;18.40
16479;DHT22;8350;52.316;10.530;2023-02-04T10:00:15;3.40;1.00
16479;DHT22;8350;52.316;10.530;2023-02-04T10:02:43;3.50;3.40
16479;DHT22;8350;52.316;10.530;2023-02-04T10:05:15;3.50;1.00
16479;DHT22;8350;52.316;10.530;2023-02-04T10:07:44;3.60;1.00
16479;DHT22;8350;52.316;10.530;2023-02-04T10:10:16;3.60;1.00
16479;DHT22;8350;52.316;10.530;2023-02-04T10:12:44;3.60;1.00
16479;DHT22;8350;52.316;10.530;2023-02-04T10:15:18;3.60;1.00
16479;DHT22;8350;52.316;10.530;2023-02-04T10:17:48;3.60;1.00
16479;DHT22;8350;52.316;10.530;2023-02-04T10:20:20;3.70;1.00
16479;DHT22;8350;52.316;10.530;2023-02-04T10:22:48;3.70;1.00
16479;DHT22;8350;52.316;10.530;2023-02-04T10:25:18;3.70;1.00
16479;DHT22;8350;52.316;10.530;2023-02-04T10:27:49;3.80;1.00
16479;DHT22;8350;52.316;10.530;2023-02-04T10:30:19;3.90;1.00
16479;DHT22;8350;52.316;10.530;2023-02-04T10:32:46;4.00;1.00
16479;DHT22;8350;52.316;10.530;2023-02-04T10:35:15;3.90;1.00
16479;DHT22;8350;52.316;10.530;2023-02-04T10:37:44;3.90;1.00
16479;DHT22;8350;52.316;10.530;2023-02-04T10:40:28;3.90;1.00
16479;DHT22;8350;52.316;10.530;2023-02-04T10:42:56;3.90;1.00
16479;DHT22;8350;52.316;10.530;2023-02-04T10:45:24;3.90;1.00
16479;DHT22;8350;52.316;10.530;2023-02-04T10:47:52;3.90;1.00
16479;DHT22;8350;52.316;10.530;2023-02-04T10:50:21;3.90;1.00
16479;DHT22;8350;52.316;10.530;2023-02-04T10:52:51;3.90;1.00
16479;DHT22;8350;52.316;10.530;2023-02-04T10:55:40;4.00;1.00
16479;DHT22;8350;52.316;10.530;2023-02-04T10:58:09;4.00;1.00
16479;DHT22;8350;52.316;10.530;2023-02-04T11:00:37;4.00;1.00
16479;DHT22;8350;52.316;10.530;2023-02-04T11:03:06;3.90;1.00
16479;DHT22;8350;52.316;10.530;2023-02-04T11:05:35;3.90;1.00
16479;DHT22;8350;52.316;10.530;2023-02-04T11:08:19;4.00;1.00
16479;DHT22;8350;52.316;10.530;2023-02-04T11:11:02;4.10;1.00
16479;DHT22;8350;52.316;10.530;2023-02-04T11:13:39;4.10;1.00
16479;DHT22;8350;52.316;10.530;2023-02-04T11:16:11;4.10;1.00
16479;DHT22;8350;52.316;10.530;2023-02-04T11:18:49;4.10;1.00
16479;DHT22;8350;52.316;10.530;2023-02-04T11:21:25;4.20;1.00
16479;DHT22;8350;52.316;10.530;2023-02-04T11:24:23;4.20;1.00
16479;DHT22;8350;52.316;10.530;2023-02-04T11:26:52;4.20;1.00
16479;DHT22;8350;52.316;10.530;2023-02-04T11:29:31;4.20;1.00
16479;DHT22;8350;52.316;10.530;2023-02-04T11:32:04;4.20;1.00
16479;DHT22;8350;52.316;10.530;2023-02-04T11:34:46;4.20;1.00
16479;DHT22;8350;52.316;10.530;2023-02-04T11:37:32;4.20;1.00
16479;DHT22;8350;52.316;10.530;2023-02-04T11:40:01;4.10;1.00
16479;DHT22;8350;52.316;10.530;2023-02-04T11:42:39;4.00;1.00
16479;DHT22;8350;52.316;10.530;2023-02-04T11:45:13;4.20;1.00
16479;DHT22;8350;52.316;10.530;2023-02-04T11:47:41;4.20;1.00
16479;DHT22;8350;52.316;10.530;2023-02-04T11:50:22;4.20;1.00
16479;DHT22;8350;52.316;10.530;2023-02-04T11:52:50;4.20;1.00
16479;DHT22;8350;52.316;10.530;2023-02-04T11:55:20;4.20;1.00
16479;DHT22;8350;52.316;10.530;2023-02-04T11:57:51;4.20;1.00
16479;DHT22;8350;52.316;10.530;2023-02-04T12:00:20;4.10;1.00
16479;DHT22;8350;52.316;10.530;2023-02-04T12:02:49;4.10;1.00
16479;DHT22;8350;52.316;10.530;2023-02-04T12:05:18;4.20;1.00
16479;DHT22;8350;52.316;10.530;2023-02-04T12:07:46;4.30;1.00
16479;DHT22;8350;52.316;10.530;2023-02-04T12:12:53;4.20;1.00
16479;DHT22;8350;52.316;10.530;2023-02-04T12:15:33;4.20;1.00
16479;DHT22;8350;52.316;10.530;2023-02-04T12:18:02;4.20;1.00
16479;DHT22;8350;52.316;10.530;2023-02-04T12:20:29;4.20;1.00
16479;DHT22;8350;52.316;10.530;2023-02-04T12:22:56;4.20;1.00
16479;DHT22;8350;52.316;10.530;2023-02-04T12:25:24;4.20;1.00
16479;DHT22;8350;52.316;10.530;2023-02-04T12:27:53;4.10;1.00
16479;DHT22;8350;52.316;10.530;2023-02-04T12:30:20;4.20;1.00
16479;DHT22;8350;52.316;10.530;2023-02-04T12:32:47;4.30;1.00
16479;DHT22;8350;52.316;10.530;2023-02-04T12:35:14;4.30;1.00
16479;DHT22;8350;52.316;10.530;2023-02-04T12:37:42;4.30;1.00
16479;DHT22;8350;52.316;10.530;2023-02-04T12:40:13;4.30;1.00
16479;DHT22;8350;52.316;10.530;2023-02-04T12:42:44;4.30;1.00
16479;DHT22;8350;52.316;10.530;2023-02-04T12:45:14;4.50;1.00
16479;DHT22;8350;52.316;10.530;2023-02-04T12:47:42;4.40;1.00
16479;DHT22;8350;52.316;10.530;2023-02-04T12:50:10;4.40;1.00
16479;DHT22;8350;52.316;10.530;2023-02-04T12:52:38;4.40;1.00
16479;DHT22;8350;52.316;10.530;2023-02-04T12:55:07;4.50;1.00
16479;DHT22;8350;52.316;10.530;2023-02-04T12:57:37;4.60;1.00
16479;DHT22;8350;52.316;10.530;2023-02-04T13:00:05;4.70;1.00
16479;DHT22;8350;52.316;10.530;2023-02-04T13:02:34;4.80;1.00
16479;DHT22;8350;52.316;10.530;2023-02-04T13:05:01;4.80;1.00
16479;DHT22;8350;52.316;10.530;2023-02-04T13:07:28;4.70;1.00
16479;DHT22;8350;52.316;10.530;2023-02-04T13:10:00;4.70;1.00
16479;DHT22;8350;52.316;10.530;2023-02-04T13:12:32;4.80;1.00
16479;DHT22;8350;52.316;10.530;2023-02-04T13:15:03;4.90;1.00
16479;DHT22;8350;52.316;10.530;2023-02-04T13:17:31;5.00;1.00
16479;DHT22;8350;52.316;10.530;2023-02-04T13:19:59;5.10;1.00
16479;DHT22;8350;52.316;10.530;2023-02-04T13:22:26;5.30;1.00
16479;DHT22;8350;52.316;10.530;2023-02-04T13:24:53;5.40;1.00
16479;DHT22;8350;52.316;10.530;2023-02-04T13:27:20;5.40;1.00
16479;DHT22;8350;52.316;10.530;2023-02-04T13:29:47;5.40;1.00
16479;DHT22;8350;52.316;10.530;2023-02-04T13:32:15;5.30;1.00
16479;DHT22;8350;52.316;10.530;2023-02-04T13:34:42;5.40;1.00
16479;DHT22;8350;52.316;10.530;2023-02-04T13:37:10;5.50;1.00
16479;DHT22;8350;52.316;10.530;2023-02-04T13:39:37;5.70;99.90
16479;DHT22;8350;52.316;10.530;2023-02-04T13:42:04;5.90;99.90
16479;DHT22;8350;52.316;10.530;2023-02-04T13:44:31;6.00;99.90
16479;DHT22;8350;52.316;10.530;2023-02-04T13:46:58;5.70;99.90
16479;DHT22;8350;52.316;10.530;2023-02-04T13:49:25;5.60;99.90
16479;DHT22;8350;52.316;10.530;2023-02-04T13:51:52;5.60;99.90
16479;DHT22;8350;52.316;10.530;2023-02-04T13:54:20;5.50;99.90
16479;DHT22;8350;52.316;10.530;2023-02-04T13:56:47;5.70;99.90
16479;DHT22;8350;52.316;10.530;2023-02-04T13:59:14;5.90;99.90
16479;DHT22;8350;52.316;10.530;2023-02-04T14:01:43;6.00;99.90
16479;DHT22;8350;52.316;10.530;2023-02-04T14:04:10;6.10;99.90
16479;DHT22;8350;52.316;10.530;2023-02-04T14:06:37;6.30;99.90
16479;DHT22;8350;52.316;10.530;2023-02-04T14:09:08;6.40;99.90
16479;DHT22;8350;52.316;10.530;2023-02-04T14:11:36;6.50;99.90
16479;DHT22;8350;52.316;10.530;2023-02-04T14:14:04;6.50;48.90
16479;DHT22;8350;52.316;10.530;2023-02-04T14:16:34;6.30;1.00
16479;DHT22;8350;52.316;10.530;2023-02-04T14:19:01;6.10;99.90
16479;DHT22;8350;52.316;10.530;2023-02-04T14:21:28;6.10;99.90
16479;DHT22;8350;52.316;10.530;2023-02-04T14:23:56;6.10;99.90
16479;DHT22;8350;52.316;10.530;2023-02-04T14:26:24;6.00;99.90
16479;DHT22;8350;52.316;10.530;2023-02-04T14:28:52;5.90;99.90
16479;DHT22;8350;52.316;10.530;2023-02-04T14:31:22;5.70;99.90
16479;DHT22;8350;52.316;10.530;2023-02-04T14:33:48;5.60;99.90
16479;DHT22;8350;52.316;10.530;2023-02-04T14:36:16;5.50;99.90
16479;DHT22;8350;52.316;10.530;2023-02-04T14:38:43;5.60;99.90
16479;DHT22;8350;52.316;10.530;2023-02-04T14:41:10;5.50;99.90
16479;DHT22;8350;52.316;10.530;2023-02-04T14:43:40;5.50;99.90
16479;DHT22;8350;52.316;10.530;2023-02-04T14:46:09;5.50;99.90
16479;DHT22;8350;52.316;10.530;2023-02-04T14:48:38;5.50;99.90
16479;DHT22;8350;52.316;10.530;2023-02-04T14:51:05;5.40;99.90
16479;DHT22;8350;52.316;10.530;2023-02-04T14:53:32;5.20;99.90
16479;DHT22;8350;52.316;10.530;2023-02-04T14:55:59;5.00;99.90
16479;DHT22;8350;52.316;10.530;2023-02-04T14:58:28;5.00;1.00
16479;DHT22;8350;52.316;10.530;2023-02-04T15:00:55;4.90;1.00
16479;DHT22;8350;52.316;10.530;2023-02-04T15:03:23;4.90;1.00
16479;DHT22;8350;52.316;10.530;2023-02-04T15:05:50;4.90;99.90
16479;DHT22;8350;52.316;10.530;2023-02-04T15:08:17;4.80;99.90
16479;DHT22;8350;52.316;10.530;2023-02-04T15:10:44;4.70;99.90
16479;DHT22;8350;52.316;10.530;2023-02-04T15:13:11;4.70;1.00
16479;DHT22;8350;52.316;10.530;2023-02-04T15:15:38;4.70;1.00
16479;DHT22;8350;52.316;10.530;2023-02-04T15:18:07;4.70;99.90
16479;DHT22;8350;52.316;10.530;2023-02-04T15:20:38;4.60;99.90
16479;DHT22;8350;52.316;10.530;2023-02-04T15:23:05;4.60;99.90
16479;DHT22;8350;52.316;10.530;2023-02-04T15:25:32;4.50;1.00
16479;DHT22;8350;52.316;10.530;2023-02-04T15:27:59;4.50;99.90
16479;DHT22;8350;52.316;10.530;2023-02-04T15:30:28;4.40;99.90
16479;DHT22;8350;52.316;10.530;2023-02-04T15:32:55;4.30;1.00
16479;DHT22;8350;52.316;10.530;2023-02-04T15:35:22;4.40;1.00
16479;DHT22;8350;52.316;10.530;2023-02-04T15:37:50;4.20;1.00
16479;DHT22;8350;52.316;10.530;2023-02-04T15:40:17;4.30;1.00
16479;DHT22;8350;52.316;10.530;2023-02-04T15:42:44;4.20;1.00
16479;DHT22;8350;52.316;10.530;2023-02-04T15:45:11;4.10;1.00
16479;DHT22;8350;52.316;10.530;2023-02-04T15:47:38;3.90;1.00
16479;DHT22;8350;52.316;10.530;2023-02-04T15:50:05;4.00;1.00
16479;DHT22;8350;52.316;10.530;2023-02-04T15:52:35;4.00;1.00
16479;DHT22;8350;52.316;10.530;2023-02-04T15:55:04;4.10;1.00
16479;DHT22;8350;52.316;10.530;2023-02-04T15:57:31;4.00;1.00
16479;DHT22;8350;52.316;10.530;2023-02-04T15:59:57;4.00;1.00